Kezdőlap
METAR-TAF:

METAR-TAF

Repülőterek :

Csungking, Kína

földrajzi szélesség: 29-31N, földrajzi hosszúság: 106-29E, magasság: 351 m

Jelenlegi meteorológiai megfigyelések

A jelentés 16 perccel ezelõtt készült, 21:00 UTC
Észak-északkeleti szél 4 kt
Hőmérséklet 15°C
Páratartalom 94%
Légköri nyomás 1021 hPa
Látótávolság: 7000 m
Kevés felhő 1500 lábon
Szórványos felhőzet 3300 lábon

METAR: ZUCK 212100Z 02002MPS 7000 FEW015 SCT033 15/14 Q1021 NOSIG

Idő: 05:16 (21:16 UTC)

Előrejelzés

A jelentés 6 órával és 13 perccel ezelõtt készült, 15:03 UTC
Az előrejelzés 21-én 18 óra UTC és 22-én 18 óra UTC között érvényes
Északi szél 6 kt
Látótávolság: 5000 m
Szórványos felhőzet 1600 lábon
Borult 4000 lábon
Párásság
21-én 21 óra UTC és 22-én 03 óra UTC között ideiglenes
Látótávolság: 3500 m
enyhe esõ, Párásság

TAF: ZUCK 211503Z 2118/2218 01003MPS 5000 BR SCT016 OVC040 TX17/2207Z TN14/2121Z TEMPO 2121/2203 3500 -RA BR

Meteorológiai megfigyelések és előrejelzések több, mint 4000 repülőtéren (METAR és TAF jelentéseket).

A térképen piros és sárga pontok jelzik az elérhető meteorológiai állomásokat.

Mozgassa az egeret a pont fölött, hogy megjelenjen az állomás neve.

Azután kattintson az időjárási megfigyelések és előrejelzések megtekintéséhez.

A térkép megváltoztatása: kattintson a fekete keresztel jelölt zöld gombra ráközelítéshez, a vonallal jelölt zöld gombra távolításhoz, vagy a zöld nyilakra a szomszédos térképek eléréséhez.


METAR-TAF: